Tramping Lake, Canada
Current Conditions -  °F | °C
As of 7:00 PM on Wednesday 22 Oct 2014 (Local Time) from CYKY Reporting Station
Broken Clouds Broken Clouds  
Wind Chill: 39°   Ceiling: 24000
Heat Index: 45°   Visibility: 15mi
Dew Point: 37°   Wind: 10mph
Humidity: 76%   Direction: 130°SE
Pressure: 29.73"   Gusts: NA
Location:  52.13°N, 108.95°W
Report Text: CYKY 230100Z 13009KT 15SM FEW040 SCT070 BKN240 07/03 A2973 RMK SC2AC1CI3 SLP084
Loading
Personal Weather Stations






























Interactive Weather Map
Tropical Storm Tracking
New forecast layout! Learn more

10-Day Weather Forecast

Advertisements
Track Severe Weather on mobile